createdAt,value
2023-02-06T00:00:55.830Z,24.65
2023-02-06T00:03:23.977Z,23.00
2023-02-06T00:05:56.694Z,23.52
2023-02-06T00:08:24.995Z,21.67
2023-02-06T00:10:53.198Z,21.98
2023-02-06T00:13:21.532Z,21.60
2023-02-06T00:15:49.747Z,21.50
2023-02-06T00:18:19.402Z,21.50
2023-02-06T00:20:47.635Z,22.05
2023-02-06T00:23:16.014Z,20.02
2023-02-06T00:25:44.280Z,19.70
2023-02-06T00:28:12.469Z,20.08
2023-02-06T00:30:40.909Z,20.83
2023-02-06T00:33:09.184Z,19.45
2023-02-06T00:35:38.912Z,20.02
2023-02-06T00:38:08.185Z,19.75
2023-02-06T00:40:36.373Z,19.27
2023-02-06T00:43:04.564Z,20.13
2023-02-06T00:45:32.891Z,18.52
2023-02-06T00:48:01.252Z,19.25
2023-02-06T00:50:29.494Z,20.15
2023-02-06T00:52:59.032Z,18.52
2023-02-06T00:55:28.602Z,18.60
2023-02-06T00:57:56.824Z,18.05
2023-02-06T01:00:25.219Z,18.10
2023-02-06T01:02:53.420Z,18.35
2023-02-06T01:05:22.271Z,17.90
2023-02-06T01:07:53.384Z,18.35
2023-02-06T01:10:23.296Z,17.48
2023-02-06T01:12:51.588Z,17.48
2023-02-06T01:15:19.937Z,16.75
2023-02-06T01:17:48.153Z,16.90
2023-02-06T01:20:16.336Z,17.13
2023-02-06T01:22:44.618Z,16.70
2023-02-06T01:25:13.545Z,17.85
2023-02-06T01:27:43.218Z,16.33
2023-02-06T01:30:12.669Z,16.60
2023-02-06T01:32:41.735Z,15.55
2023-02-06T01:35:10.849Z,15.32
2023-02-06T01:37:39.238Z,14.30
2023-02-06T01:40:09.424Z,14.18
2023-02-06T01:42:37.834Z,14.35
2023-02-06T01:45:53.120Z,15.15
2023-02-06T01:48:22.964Z,14.57
2023-02-06T01:50:52.566Z,14.25
2023-02-06T01:53:22.326Z,14.48
2023-02-06T01:55:51.152Z,14.55
2023-02-06T01:58:22.358Z,13.90
2023-02-06T02:00:52.042Z,14.68
2023-02-06T02:03:20.287Z,13.98
2023-02-06T02:05:48.472Z,14.10
2023-02-06T02:08:18.792Z,13.68
2023-02-06T02:10:47.004Z,14.20
2023-02-06T02:13:15.388Z,13.52
2023-02-06T02:15:50.554Z,13.02
2023-02-06T02:18:27.464Z,12.75
2023-02-06T02:21:06.786Z,13.88
2023-02-06T02:23:36.846Z,12.75
2023-02-06T02:26:37.456Z,12.68
2023-02-06T02:29:37.952Z,12.82
2023-02-06T02:32:40.764Z,13.25
2023-02-06T02:35:16.047Z,12.07
2023-02-06T02:37:50.538Z,12.80
2023-02-06T02:40:23.257Z,11.77
2023-02-06T02:42:55.488Z,12.02
2023-02-06T02:45:25.965Z,11.80
2023-02-06T02:47:57.347Z,11.80
2023-02-06T02:50:27.125Z,12.20
2023-02-06T02:52:55.267Z,11.73
2023-02-06T02:55:24.148Z,11.80
2023-02-06T02:58:00.224Z,11.40
2023-02-06T03:00:28.496Z,11.40
2023-02-06T03:02:56.656Z,11.25
2023-02-06T03:05:26.391Z,10.60
2023-02-06T03:08:03.180Z,10.95
2023-02-06T03:10:34.977Z,10.85
2023-02-06T03:13:05.412Z,11.48
2023-02-06T03:15:37.845Z,11.10
2023-02-06T03:18:09.033Z,10.63
2023-02-06T03:20:39.099Z,11.40
2023-02-06T03:23:07.289Z,10.77
2023-02-06T03:25:37.509Z,10.90
2023-02-06T03:28:06.202Z,10.43
2023-02-06T03:30:34.433Z,10.57
2023-02-06T03:33:04.339Z,10.18
2023-02-06T03:35:34.166Z,10.48
2023-02-06T03:38:04.165Z,10.10
2023-02-06T03:40:32.333Z,10.60
2023-02-06T03:43:02.110Z,9.63
2023-02-06T03:45:31.526Z,9.88
2023-02-06T03:48:02.584Z,9.18
2023-02-06T03:50:31.090Z,9.27
2023-02-06T03:52:59.621Z,9.30
2023-02-06T03:55:29.334Z,9.23
2023-02-06T03:57:59.190Z,9.75
2023-02-06T04:00:27.552Z,9.10
2023-02-06T04:02:55.849Z,9.07
2023-02-06T04:05:24.096Z,9.00
2023-02-06T04:07:53.994Z,9.00
2023-02-06T04:10:22.265Z,8.75
2023-02-06T04:12:51.869Z,9.00
2023-02-06T04:15:20.337Z,9.02
2023-02-06T04:17:59.541Z,8.85
2023-02-06T04:20:29.236Z,8.65
2023-02-06T04:22:57.559Z,9.20
2023-02-06T04:25:25.846Z,8.95
2023-02-06T04:27:55.444Z,8.32
2023-02-06T04:30:23.765Z,8.65
2023-02-06T04:32:52.044Z,8.77
2023-02-06T04:35:20.437Z,8.65
2023-02-06T04:37:48.810Z,7.57
2023-02-06T04:40:17.302Z,8.23
2023-02-06T04:42:45.526Z,7.93
2023-02-06T04:45:15.272Z,7.95
2023-02-06T04:47:43.713Z,8.13
2023-02-06T04:50:12.042Z,8.30
2023-02-06T04:52:40.274Z,7.80
2023-02-06T04:55:09.109Z,8.00
2023-02-06T04:57:37.423Z,7.82
2023-02-06T05:00:06.240Z,8.27
2023-02-06T05:02:39.786Z,7.53
2023-02-06T05:05:09.210Z,7.63
2023-02-06T05:07:37.395Z,7.90
2023-02-06T05:10:05.964Z,7.53
2023-02-06T05:12:34.676Z,7.80
2023-02-06T05:15:02.975Z,6.80
2023-02-06T05:17:31.139Z,7.15
2023-02-06T05:20:00.807Z,6.68
2023-02-06T05:22:29.096Z,6.80
2023-02-06T05:24:57.333Z,6.90
2023-02-06T05:27:25.900Z,8.30
2023-02-06T05:29:54.138Z,8.18
2023-02-06T05:32:22.376Z,8.50
2023-02-06T05:34:50.598Z,9.68
2023-02-06T05:37:20.248Z,10.30
2023-02-06T05:39:48.585Z,9.80
2023-02-06T05:42:16.757Z,8.65
2023-02-06T05:44:45.205Z,9.15
2023-02-06T05:47:13.518Z,9.23
2023-02-06T05:49:44.102Z,11.25
2023-02-06T05:52:12.434Z,13.93
2023-02-06T05:54:42.042Z,16.35
2023-02-06T05:57:10.515Z,17.42
2023-02-06T05:59:38.767Z,24.23
2023-02-06T06:02:07.360Z,24.30
2023-02-06T06:04:35.553Z,21.73
2023-02-06T06:07:03.939Z,21.17
2023-02-06T06:09:32.098Z,22.98
2023-02-06T06:12:01.729Z,21.02
2023-02-06T06:14:29.979Z,33.35
2023-02-06T06:16:58.165Z,41.63
2023-02-06T06:19:26.404Z,35.38
2023-02-06T06:21:55.581Z,39.53
2023-02-06T06:24:25.586Z,38.15
2023-02-06T06:26:54.110Z,37.47
2023-02-06T06:29:24.193Z,38.38
2023-02-06T06:31:52.894Z,37.08
2023-02-06T06:34:21.015Z,43.03
2023-02-06T06:36:49.272Z,35.60
2023-02-06T06:39:17.413Z,37.72
2023-02-06T06:41:45.960Z,43.33
2023-02-06T06:44:14.117Z,49.22
2023-02-06T06:46:43.815Z,42.08
2023-02-06T06:49:12.051Z,33.58
2023-02-06T06:51:40.218Z,34.67
2023-02-06T06:54:08.374Z,43.13
2023-02-06T06:56:36.685Z,41.47
2023-02-06T06:59:04.930Z,39.00
2023-02-06T07:01:33.098Z,44.85
2023-02-06T07:04:02.727Z,41.17
2023-02-06T07:06:31.051Z,44.45
2023-02-06T07:08:59.291Z,41.90
2023-02-06T07:11:27.518Z,50.00
2023-02-06T07:13:55.707Z,49.55
2023-02-06T07:16:24.667Z,50.30
2023-02-06T07:18:52.913Z,47.65
2023-02-06T07:21:22.601Z,50.85
2023-02-06T07:23:51.131Z,54.65
2023-02-06T07:26:19.352Z,52.08
2023-02-06T07:28:49.318Z,67.97
2023-02-06T07:31:17.670Z,58.38
2023-02-06T07:33:46.025Z,60.10
2023-02-06T07:36:14.202Z,60.13
2023-02-06T07:38:43.876Z,62.63
2023-02-06T07:41:12.833Z,61.28
2023-02-06T07:43:41.154Z,60.25
2023-02-06T07:46:09.392Z,60.70
2023-02-06T07:48:38.016Z,62.83
2023-02-06T07:51:07.142Z,59.58
2023-02-06T07:53:35.561Z,59.78
2023-02-06T07:56:10.305Z,58.67
2023-02-06T07:58:38.888Z,55.67
2023-02-06T08:01:07.384Z,54.15
2023-02-06T08:03:35.677Z,54.80
2023-02-06T08:06:09.117Z,54.17
2023-02-06T08:08:37.354Z,52.80
2023-02-06T08:11:08.060Z,52.22
2023-02-06T08:13:36.532Z,45.58
2023-02-06T08:16:06.539Z,49.83
2023-02-06T08:18:34.886Z,58.30
2023-02-06T08:21:03.610Z,63.35
2023-02-06T08:23:31.804Z,64.60
2023-02-06T08:26:04.086Z,65.22
2023-02-06T08:28:35.286Z,66.28
2023-02-06T08:31:05.880Z,64.00
2023-02-06T08:33:35.610Z,63.65
2023-02-06T08:36:04.086Z,63.78
2023-02-06T08:38:32.271Z,64.72
2023-02-06T08:41:00.610Z,62.92
2023-02-06T08:43:28.790Z,63.28
2023-02-06T08:45:59.663Z,57.75
2023-02-06T08:48:28.072Z,53.45
2023-02-06T08:51:03.895Z,50.33
2023-02-06T08:53:32.101Z,47.20
2023-02-06T08:56:00.708Z,45.67
2023-02-06T08:58:28.920Z,43.72
2023-02-06T09:01:00.076Z,48.30
2023-02-06T09:03:28.635Z,57.20
2023-02-06T09:06:09.381Z,67.15
2023-02-06T09:08:38.575Z,64.75
2023-02-06T09:11:07.797Z,65.25
2023-02-06T09:13:36.134Z,60.92
2023-02-06T09:16:06.692Z,58.33
2023-02-06T09:18:35.218Z,54.67
2023-02-06T09:21:08.244Z,55.35
2023-02-06T09:23:36.732Z,52.72
2023-02-06T09:26:05.184Z,54.22
2023-02-06T09:28:33.413Z,52.78
2023-02-06T09:31:01.728Z,55.80
2023-02-06T09:33:31.367Z,59.42
2023-02-06T09:36:04.168Z,56.75
2023-02-06T09:38:32.358Z,55.70
2023-02-06T09:41:01.047Z,55.38
2023-02-06T09:43:29.289Z,52.53
2023-02-06T09:45:59.302Z,47.30
2023-02-06T09:48:28.619Z,46.72
2023-02-06T09:51:02.994Z,46.13
2023-02-06T09:53:33.565Z,44.78
2023-02-06T09:56:04.418Z,46.53
2023-02-06T09:58:37.760Z,44.90
2023-02-06T10:01:08.898Z,44.90
2023-02-06T10:03:45.323Z,43.90
2023-02-06T10:06:19.194Z,42.03
2023-02-06T10:08:52.115Z,40.50
2023-02-06T10:11:35.108Z,42.10
2023-02-06T10:14:05.498Z,40.90
2023-02-06T10:16:37.986Z,40.38
2023-02-06T10:19:08.814Z,38.20
2023-02-06T10:21:41.533Z,39.92
2023-02-06T10:24:11.911Z,38.78
2023-02-06T10:26:40.852Z,37.03
2023-02-06T10:29:16.772Z,38.08
2023-02-06T10:32:00.693Z,37.53
2023-02-06T10:34:38.990Z,36.38
2023-02-06T10:37:16.968Z,34.47
2023-02-06T10:40:03.647Z,35.22
2023-02-06T10:42:39.117Z,34.40
2023-02-06T10:45:19.702Z,34.40
2023-02-06T10:47:51.275Z,33.40
2023-02-06T10:50:24.045Z,33.92
2023-02-06T10:52:53.690Z,32.47
2023-02-06T10:55:24.376Z,30.98
2023-02-06T10:57:58.113Z,30.75
2023-02-06T11:00:27.054Z,32.10
2023-02-06T11:03:07.196Z,30.65
2023-02-06T11:05:37.003Z,29.92
2023-02-06T11:08:11.133Z,31.35
2023-02-06T11:10:39.647Z,31.67
2023-02-06T11:13:09.472Z,31.33
2023-02-06T11:15:40.693Z,30.70
2023-02-06T11:18:10.630Z,38.25
2023-02-06T11:20:39.785Z,40.63
2023-02-06T11:23:20.081Z,40.15
2023-02-06T11:25:50.885Z,40.83
2023-02-06T11:28:19.965Z,40.03
2023-02-06T11:30:55.923Z,40.65
2023-02-06T11:33:26.859Z,40.70
2023-02-06T11:35:56.046Z,40.72
2023-02-06T11:38:28.034Z,39.30
2023-02-06T11:40:57.862Z,39.67
2023-02-06T11:43:27.359Z,38.78
2023-02-06T11:46:08.741Z,37.85
2023-02-06T11:48:39.001Z,39.42
2023-02-06T11:51:07.651Z,41.05
2023-02-06T11:53:37.314Z,42.28
2023-02-06T11:56:08.208Z,42.05
2023-02-06T11:58:36.647Z,42.83
2023-02-06T12:01:06.766Z,41.95
2023-02-06T12:03:37.354Z,41.88
2023-02-06T12:06:11.416Z,43.63
2023-02-06T12:08:49.593Z,43.78
2023-02-06T12:11:23.285Z,44.25
2023-02-06T12:13:53.745Z,44.75
2023-02-06T12:16:22.030Z,46.55
2023-02-06T12:18:52.428Z,45.00
2023-02-06T12:21:27.172Z,45.05
2023-02-06T12:23:58.741Z,45.80
2023-02-06T12:26:29.947Z,44.60
2023-02-06T12:29:00.360Z,43.20
2023-02-06T12:31:32.355Z,44.63
2023-02-06T12:34:04.747Z,42.55
2023-02-06T12:36:36.816Z,42.30
2023-02-06T12:39:07.607Z,41.20
2023-02-06T12:41:48.337Z,41.47
2023-02-06T12:44:23.746Z,41.10
2023-02-06T12:46:53.778Z,41.47
2023-02-06T12:49:23.754Z,40.72
2023-02-06T12:51:55.178Z,42.28
2023-02-06T12:54:28.447Z,39.40
2023-02-06T12:56:58.472Z,43.78
2023-02-06T12:59:57.202Z,51.50
2023-02-06T13:02:36.801Z,53.30
2023-02-06T13:05:05.970Z,52.83
2023-02-06T13:07:41.580Z,56.17
2023-02-06T13:10:20.729Z,52.65
2023-02-06T13:12:54.752Z,53.47
2023-02-06T13:15:24.125Z,52.13
2023-02-06T13:17:52.735Z,53.65
2023-02-06T13:20:21.321Z,53.25
2023-02-06T13:22:51.181Z,53.03
2023-02-06T13:25:50.486Z,54.20
2023-02-06T13:28:40.965Z,53.03
2023-02-06T13:31:28.017Z,51.45
2023-02-06T13:33:58.197Z,51.15
2023-02-06T13:36:28.260Z,51.20
2023-02-06T13:38:57.383Z,50.03
2023-02-06T13:41:32.039Z,49.20
2023-02-06T13:44:02.055Z,49.17
2023-02-06T13:46:41.099Z,49.47
2023-02-06T13:49:19.636Z,49.13
2023-02-06T13:51:50.404Z,48.03
2023-02-06T13:54:55.425Z,47.25
2023-02-06T13:57:31.188Z,47.45
2023-02-06T14:00:01.153Z,47.10
2023-02-06T14:02:35.425Z,46.15
2023-02-06T14:05:04.411Z,44.72
2023-02-06T14:07:50.705Z,44.65
2023-02-06T14:10:33.005Z,44.97
2023-02-06T14:13:09.283Z,44.97
2023-02-06T14:15:41.045Z,42.78
2023-02-06T14:18:20.511Z,42.30
2023-02-06T14:20:50.801Z,42.03
2023-02-06T14:23:25.965Z,42.65
2023-02-06T14:26:00.761Z,40.30
2023-02-06T14:28:34.813Z,41.50
2023-02-06T14:31:10.188Z,41.80
2023-02-06T14:33:50.332Z,39.85
2023-02-06T14:36:25.501Z,39.58
2023-02-06T14:39:08.520Z,40.83
2023-02-06T14:41:39.713Z,40.70
2023-02-06T14:44:14.514Z,41.53
2023-02-06T14:46:44.085Z,41.05
2023-02-06T14:49:15.818Z,40.42
2023-02-06T14:51:44.061Z,44.15
2023-02-06T14:54:29.233Z,49.28
2023-02-06T14:56:57.716Z,46.38
2023-02-06T14:59:27.431Z,45.75
2023-02-06T15:01:56.399Z,46.00
2023-02-06T15:04:26.092Z,45.10
2023-02-06T15:06:55.185Z,44.55
2023-02-06T15:09:27.554Z,44.10
2023-02-06T15:11:58.275Z,45.50
2023-02-06T15:14:28.973Z,44.15
2023-02-06T15:16:59.915Z,43.85
2023-02-06T15:19:29.434Z,43.40
2023-02-06T15:22:00.961Z,45.20
2023-02-06T15:24:52.809Z,50.10
2023-02-06T15:27:27.425Z,47.00
2023-02-06T15:29:57.129Z,47.85
2023-02-06T15:32:28.820Z,48.38
2023-02-06T15:34:57.112Z,49.53
2023-02-06T15:37:27.373Z,50.13
2023-02-06T15:39:55.707Z,53.13
2023-02-06T15:42:24.249Z,53.72
2023-02-06T15:45:02.979Z,50.17
2023-02-06T15:47:31.200Z,50.42
2023-02-06T15:50:00.675Z,55.83
2023-02-06T15:52:37.249Z,60.22
2023-02-06T15:55:06.093Z,59.45
2023-02-06T15:57:35.477Z,55.53
2023-02-06T16:00:09.747Z,57.58
2023-02-06T16:02:41.271Z,56.70
2023-02-06T16:05:09.812Z,57.00
2023-02-06T16:07:38.483Z,55.80
2023-02-06T16:10:22.584Z,55.83
2023-02-06T16:12:51.217Z,63.42
2023-02-06T16:15:27.512Z,74.13
2023-02-06T16:17:56.143Z,74.18
2023-02-06T16:20:33.493Z,73.13
2023-02-06T16:23:21.512Z,71.13
2023-02-06T16:25:50.317Z,69.28
2023-02-06T16:28:22.952Z,70.18
2023-02-06T16:30:57.430Z,68.43
2023-02-06T16:33:33.977Z,66.47
2023-02-06T16:36:02.179Z,63.67
2023-02-06T16:38:30.542Z,63.50
2023-02-06T16:40:58.833Z,63.35
2023-02-06T16:43:28.039Z,62.25
2023-02-06T16:46:00.636Z,61.85
2023-02-06T16:48:29.343Z,60.00
2023-02-06T16:50:57.547Z,59.13
2023-02-06T16:53:26.251Z,58.92
2023-02-06T16:55:54.427Z,56.92
2023-02-06T16:58:23.616Z,57.67
2023-02-06T17:00:52.914Z,55.13
2023-02-06T17:03:22.554Z,55.53
2023-02-06T17:05:53.689Z,55.22
2023-02-06T17:08:24.517Z,52.22
2023-02-06T17:10:53.192Z,52.78
2023-02-06T17:13:22.228Z,51.42
2023-02-06T17:15:52.439Z,50.55
2023-02-06T17:18:22.604Z,45.88
2023-02-06T17:20:51.805Z,48.05
2023-02-06T17:23:20.093Z,46.53
2023-02-06T17:25:48.591Z,47.35
2023-02-06T17:28:18.236Z,48.35
2023-02-06T17:30:46.858Z,45.20
2023-02-06T17:33:15.160Z,45.28
2023-02-06T17:35:46.348Z,44.47
2023-02-06T17:38:14.757Z,43.33
2023-02-06T17:40:42.982Z,43.83
2023-02-06T17:43:11.239Z,42.92
2023-02-06T17:45:39.838Z,41.35
2023-02-06T17:48:08.333Z,42.10
2023-02-06T17:50:37.770Z,42.65
2023-02-06T17:53:08.907Z,40.78
2023-02-06T17:55:37.530Z,42.53
2023-02-06T17:58:05.740Z,41.97
2023-02-06T18:00:34.395Z,40.28
2023-02-06T18:03:02.850Z,38.55
2023-02-06T18:05:31.277Z,39.20
2023-02-06T18:07:59.474Z,39.10
2023-02-06T18:10:29.327Z,38.28
2023-02-06T18:12:58.086Z,38.53
2023-02-06T18:15:26.305Z,37.58
2023-02-06T18:17:55.164Z,38.88
2023-02-06T18:20:23.563Z,41.15
2023-02-06T18:22:51.790Z,42.25
2023-02-06T18:25:20.248Z,44.78
2023-02-06T18:27:49.967Z,44.53
2023-02-06T18:30:19.368Z,44.13
2023-02-06T18:32:47.673Z,45.38
2023-02-06T18:35:16.566Z,46.05
2023-02-06T18:37:44.989Z,46.67
2023-02-06T18:40:13.673Z,44.97
2023-02-06T18:42:55.335Z,45.88
2023-02-06T18:45:26.012Z,46.25
2023-02-06T18:47:55.676Z,46.15
2023-02-06T18:50:24.130Z,44.28
2023-02-06T18:52:52.505Z,47.47
2023-02-06T18:55:21.048Z,46.35
2023-02-06T18:57:49.695Z,45.92
2023-02-06T19:00:19.038Z,43.47
2023-02-06T19:02:48.769Z,46.80
2023-02-06T19:05:17.027Z,43.58
2023-02-06T19:07:47.006Z,45.13
2023-02-06T19:10:16.388Z,46.75
2023-02-06T19:12:44.763Z,49.25
2023-02-06T19:15:13.417Z,48.03
2023-02-06T19:17:41.696Z,51.28
2023-02-06T19:20:13.284Z,52.90
2023-02-06T19:22:42.278Z,57.25
2023-02-06T19:25:14.045Z,54.85
2023-02-06T19:27:42.577Z,52.13
2023-02-06T19:30:13.149Z,50.15
2023-02-06T19:32:41.394Z,48.88
2023-02-06T19:35:12.108Z,50.55
2023-02-06T19:37:40.450Z,49.75
2023-02-06T19:40:09.229Z,50.08
2023-02-06T19:42:37.597Z,48.75
2023-02-06T19:45:07.311Z,48.78
2023-02-06T19:47:36.279Z,47.58
2023-02-06T19:50:04.772Z,46.60
2023-02-06T19:52:46.658Z,47.08
2023-02-06T19:55:16.487Z,46.45
2023-02-06T19:57:44.696Z,47.17
2023-02-06T20:00:14.168Z,48.28
2023-02-06T20:02:42.541Z,46.58
2023-02-06T20:05:10.966Z,47.55
2023-02-06T20:07:39.221Z,45.30
2023-02-06T20:10:08.052Z,45.70
2023-02-06T20:12:37.648Z,45.38
2023-02-06T20:15:06.597Z,44.88
2023-02-06T20:17:34.772Z,46.28
2023-02-06T20:20:03.227Z,45.40
2023-02-06T20:22:31.416Z,46.10
2023-02-06T20:24:59.669Z,43.92
2023-02-06T20:27:27.881Z,43.47
2023-02-06T20:29:57.742Z,43.85
2023-02-06T20:32:26.168Z,43.65
2023-02-06T20:34:54.436Z,45.30
2023-02-06T20:37:22.610Z,45.97
2023-02-06T20:39:50.828Z,48.15
2023-02-06T20:42:19.541Z,47.63
2023-02-06T20:44:47.661Z,44.15
2023-02-06T20:47:17.620Z,44.60
2023-02-06T20:49:45.803Z,44.92
2023-02-06T20:52:14.197Z,43.60
2023-02-06T20:54:42.841Z,43.75
2023-02-06T20:57:11.131Z,42.13
2023-02-06T20:59:40.130Z,42.30
2023-02-06T21:02:08.357Z,43.60
2023-02-06T21:04:38.182Z,41.95
2023-02-06T21:07:06.454Z,43.38
2023-02-06T21:09:35.325Z,41.78
2023-02-06T21:12:03.538Z,41.65
2023-02-06T21:14:32.125Z,40.47
2023-02-06T21:17:00.323Z,40.38
2023-02-06T21:19:29.358Z,39.47
2023-02-06T21:21:58.976Z,39.08
2023-02-06T21:24:27.280Z,39.65
2023-02-06T21:26:55.475Z,38.25
2023-02-06T21:29:24.101Z,38.83
2023-02-06T21:32:03.669Z,37.67
2023-02-06T21:34:39.859Z,38.63
2023-02-06T21:37:09.487Z,38.92
2023-02-06T21:39:38.958Z,37.13
2023-02-06T21:42:07.268Z,36.95
2023-02-06T21:44:37.164Z,37.70
2023-02-06T21:47:05.584Z,37.10
2023-02-06T21:49:34.004Z,36.90
2023-02-06T21:52:02.260Z,36.35
2023-02-06T21:54:31.884Z,36.50
2023-02-06T21:57:00.167Z,35.05
2023-02-06T21:59:28.353Z,34.33
2023-02-06T22:01:56.758Z,34.42
2023-02-06T22:04:24.903Z,34.05
2023-02-06T22:06:53.201Z,34.08
2023-02-06T22:09:21.685Z,33.17
2023-02-06T22:11:51.550Z,33.20
2023-02-06T22:14:19.832Z,32.97
2023-02-06T22:16:48.035Z,32.40
2023-02-06T22:19:16.540Z,33.58
2023-02-06T22:21:45.169Z,32.67
2023-02-06T22:24:13.407Z,31.98
2023-02-06T22:26:41.671Z,31.88
2023-02-06T22:29:12.696Z,31.05
2023-02-06T22:31:43.164Z,31.17
2023-02-06T22:34:12.022Z,31.23
2023-02-06T22:36:40.529Z,29.85
2023-02-06T22:39:09.495Z,29.55
2023-02-06T22:41:39.576Z,29.80
2023-02-06T22:44:07.926Z,29.73
2023-02-06T22:46:38.884Z,28.75
2023-02-06T22:49:07.169Z,28.67
2023-02-06T22:51:35.453Z,27.88
2023-02-06T22:54:03.860Z,28.35
2023-02-06T22:56:36.251Z,27.60
2023-02-06T22:59:05.880Z,27.55
2023-02-06T23:01:35.472Z,28.42
2023-02-06T23:04:05.907Z,27.23
2023-02-06T23:06:34.855Z,27.23
2023-02-06T23:09:03.404Z,27.75
2023-02-06T23:11:32.292Z,27.42
2023-02-06T23:14:01.499Z,27.27
2023-02-06T23:16:30.123Z,27.13
2023-02-06T23:18:58.421Z,26.13
2023-02-06T23:21:28.162Z,26.00
2023-02-06T23:23:56.803Z,25.40
2023-02-06T23:26:25.058Z,26.08
2023-02-06T23:28:53.304Z,25.02
2023-02-06T23:31:21.503Z,25.30
2023-02-06T23:33:49.827Z,25.05
2023-02-06T23:36:19.757Z,24.98
2023-02-06T23:38:49.541Z,25.50
2023-02-06T23:41:19.046Z,24.63
2023-02-06T23:43:50.902Z,24.70
2023-02-06T23:46:20.203Z,23.88
2023-02-06T23:48:48.557Z,24.15
2023-02-06T23:51:16.986Z,22.95
2023-02-06T23:53:45.419Z,23.05
2023-02-06T23:56:16.789Z,24.50
2023-02-06T23:58:45.033Z,23.77
